sensor_id;sensor_type;location;lat;lon;timestamp;P1;durP1;ratioP1;P2;durP2;ratioP2
20695;SDS011;10507;52.754;13.040;2023-03-11T00:01:24;36.73;;;20.63;;
20695;SDS011;10507;52.754;13.040;2023-03-11T00:03:52;36.13;;;19.50;;
20695;SDS011;10507;52.754;13.040;2023-03-11T00:06:21;37.43;;;20.40;;
20695;SDS011;10507;52.754;13.040;2023-03-11T00:08:49;37.53;;;20.37;;
20695;SDS011;10507;52.754;13.040;2023-03-11T00:11:17;34.07;;;19.97;;
20695;SDS011;10507;52.754;13.040;2023-03-11T00:13:47;36.70;;;20.03;;
20695;SDS011;10507;52.754;13.040;2023-03-11T00:16:15;38.13;;;20.43;;
20695;SDS011;10507;52.754;13.040;2023-03-11T00:18:43;38.20;;;20.70;;
20695;SDS011;10507;52.754;13.040;2023-03-11T00:21:13;36.43;;;20.07;;
20695;SDS011;10507;52.754;13.040;2023-03-11T00:23:43;35.17;;;18.77;;
20695;SDS011;10507;52.754;13.040;2023-03-11T00:26:11;36.33;;;20.37;;
20695;SDS011;10507;52.754;13.040;2023-03-11T00:28:39;35.60;;;19.50;;
20695;SDS011;10507;52.754;13.040;2023-03-11T00:31:07;35.90;;;19.43;;
20695;SDS011;10507;52.754;13.040;2023-03-11T00:33:35;34.67;;;18.40;;
20695;SDS011;10507;52.754;13.040;2023-03-11T00:36:03;32.17;;;17.50;;
20695;SDS011;10507;52.754;13.040;2023-03-11T00:38:32;32.67;;;17.53;;
20695;SDS011;10507;52.754;13.040;2023-03-11T00:41:01;30.33;;;16.17;;
20695;SDS011;10507;52.754;13.040;2023-03-11T00:43:29;27.30;;;15.17;;
20695;SDS011;10507;52.754;13.040;2023-03-11T00:45:57;24.77;;;14.37;;
20695;SDS011;10507;52.754;13.040;2023-03-11T00:48:24;20.73;;;12.33;;
20695;SDS011;10507;52.754;13.040;2023-03-11T00:50:52;21.13;;;12.27;;
20695;SDS011;10507;52.754;13.040;2023-03-11T00:53:20;19.77;;;10.97;;
20695;SDS011;10507;52.754;13.040;2023-03-11T00:55:48;18.83;;;10.63;;
20695;SDS011;10507;52.754;13.040;2023-03-11T00:58:17;15.87;;;8.53;;
20695;SDS011;10507;52.754;13.040;2023-03-11T01:00:45;12.47;;;7.77;;
20695;SDS011;10507;52.754;13.040;2023-03-11T01:03:13;11.27;;;7.00;;
20695;SDS011;10507;52.754;13.040;2023-03-11T01:05:41;10.07;;;6.10;;
20695;SDS011;10507;52.754;13.040;2023-03-11T01:08:09;8.93;;;5.03;;
20695;SDS011;10507;52.754;13.040;2023-03-11T01:10:37;7.70;;;4.83;;
20695;SDS011;10507;52.754;13.040;2023-03-11T01:13:05;6.90;;;4.47;;
20695;SDS011;10507;52.754;13.040;2023-03-11T01:15:35;6.40;;;4.00;;
20695;SDS011;10507;52.754;13.040;2023-03-11T01:18:04;5.93;;;3.73;;
20695;SDS011;10507;52.754;13.040;2023-03-11T01:20:33;5.23;;;3.90;;
20695;SDS011;10507;52.754;13.040;2023-03-11T01:23:01;6.53;;;3.67;;
20695;SDS011;10507;52.754;13.040;2023-03-11T01:25:29;4.77;;;3.30;;
20695;SDS011;10507;52.754;13.040;2023-03-11T01:27:57;5.23;;;3.60;;
20695;SDS011;10507;52.754;13.040;2023-03-11T01:30:26;5.27;;;3.50;;
20695;SDS011;10507;52.754;13.040;2023-03-11T01:32:56;4.67;;;3.50;;
20695;SDS011;10507;52.754;13.040;2023-03-11T01:35:25;3.97;;;3.10;;
20695;SDS011;10507;52.754;13.040;2023-03-11T01:37:54;4.23;;;3.00;;
20695;SDS011;10507;52.754;13.040;2023-03-11T01:40:23;4.00;;;2.93;;
20695;SDS011;10507;52.754;13.040;2023-03-11T01:42:55;4.70;;;3.40;;
20695;SDS011;10507;52.754;13.040;2023-03-11T01:45:30;4.87;;;3.20;;
20695;SDS011;10507;52.754;13.040;2023-03-11T01:48:07;4.53;;;3.40;;
20695;SDS011;10507;52.754;13.040;2023-03-11T01:50:36;6.20;;;3.57;;
20695;SDS011;10507;52.754;13.040;2023-03-11T01:53:07;4.47;;;3.43;;
20695;SDS011;10507;52.754;13.040;2023-03-11T01:55:36;5.47;;;3.40;;
20695;SDS011;10507;52.754;13.040;2023-03-11T01:58:05;5.63;;;3.77;;
20695;SDS011;10507;52.754;13.040;2023-03-11T02:00:36;5.03;;;3.50;;
20695;SDS011;10507;52.754;13.040;2023-03-11T02:03:07;6.27;;;4.30;;
20695;SDS011;10507;52.754;13.040;2023-03-11T02:05:40;5.60;;;3.43;;
20695;SDS011;10507;52.754;13.040;2023-03-11T02:08:09;4.83;;;3.23;;
20695;SDS011;10507;52.754;13.040;2023-03-11T02:10:37;6.23;;;4.00;;
20695;SDS011;10507;52.754;13.040;2023-03-11T02:13:07;5.50;;;3.97;;
20695;SDS011;10507;52.754;13.040;2023-03-11T02:15:35;5.07;;;3.93;;
20695;SDS011;10507;52.754;13.040;2023-03-11T02:18:06;5.90;;;3.70;;
20695;SDS011;10507;52.754;13.040;2023-03-11T02:20:38;6.80;;;4.80;;
20695;SDS011;10507;52.754;13.040;2023-03-11T02:23:12;6.00;;;4.13;;
20695;SDS011;10507;52.754;13.040;2023-03-11T02:25:43;6.20;;;4.33;;
20695;SDS011;10507;52.754;13.040;2023-03-11T02:28:16;6.67;;;4.77;;
20695;SDS011;10507;52.754;13.040;2023-03-11T02:30:46;7.67;;;5.43;;
20695;SDS011;10507;52.754;13.040;2023-03-11T02:33:16;7.03;;;4.90;;
20695;SDS011;10507;52.754;13.040;2023-03-11T02:35:45;7.07;;;4.97;;
20695;SDS011;10507;52.754;13.040;2023-03-11T02:38:13;8.10;;;5.23;;
20695;SDS011;10507;52.754;13.040;2023-03-11T02:40:51;7.77;;;5.37;;
20695;SDS011;10507;52.754;13.040;2023-03-11T02:43:24;6.87;;;4.43;;
20695;SDS011;10507;52.754;13.040;2023-03-11T02:45:58;9.13;;;5.20;;
20695;SDS011;10507;52.754;13.040;2023-03-11T02:48:27;7.20;;;4.70;;
20695;SDS011;10507;52.754;13.040;2023-03-11T02:50:56;6.80;;;5.10;;
20695;SDS011;10507;52.754;13.040;2023-03-11T02:53:26;8.40;;;5.40;;
20695;SDS011;10507;52.754;13.040;2023-03-11T02:55:56;7.27;;;5.07;;
20695;SDS011;10507;52.754;13.040;2023-03-11T02:58:25;8.03;;;5.07;;
20695;SDS011;10507;52.754;13.040;2023-03-11T03:00:53;8.83;;;5.77;;
20695;SDS011;10507;52.754;13.040;2023-03-11T03:03:21;8.27;;;5.37;;
20695;SDS011;10507;52.754;13.040;2023-03-11T03:05:49;8.30;;;5.53;;
20695;SDS011;10507;52.754;13.040;2023-03-11T03:08:17;8.53;;;5.30;;
20695;SDS011;10507;52.754;13.040;2023-03-11T03:10:44;10.10;;;5.80;;
20695;SDS011;10507;52.754;13.040;2023-03-11T03:13:12;8.57;;;5.53;;
20695;SDS011;10507;52.754;13.040;2023-03-11T03:15:42;8.57;;;5.63;;
20695;SDS011;10507;52.754;13.040;2023-03-11T03:18:09;8.20;;;5.13;;
20695;SDS011;10507;52.754;13.040;2023-03-11T03:20:37;8.00;;;5.43;;
20695;SDS011;10507;52.754;13.040;2023-03-11T03:23:05;7.23;;;5.33;;
20695;SDS011;10507;52.754;13.040;2023-03-11T03:25:33;10.40;;;5.83;;
20695;SDS011;10507;52.754;13.040;2023-03-11T03:28:01;7.60;;;5.13;;
20695;SDS011;10507;52.754;13.040;2023-03-11T03:30:29;10.07;;;6.47;;
20695;SDS011;10507;52.754;13.040;2023-03-11T03:32:58;8.97;;;5.97;;
20695;SDS011;10507;52.754;13.040;2023-03-11T03:35:27;9.57;;;5.70;;
20695;SDS011;10507;52.754;13.040;2023-03-11T03:37:54;9.13;;;5.23;;
20695;SDS011;10507;52.754;13.040;2023-03-11T03:40:22;8.97;;;6.20;;
20695;SDS011;10507;52.754;13.040;2023-03-11T03:42:50;8.43;;;5.60;;
20695;SDS011;10507;52.754;13.040;2023-03-11T03:45:18;9.37;;;6.40;;
20695;SDS011;10507;52.754;13.040;2023-03-11T03:47:46;8.63;;;5.83;;
20695;SDS011;10507;52.754;13.040;2023-03-11T03:50:15;8.30;;;5.63;;
20695;SDS011;10507;52.754;13.040;2023-03-11T03:52:43;9.63;;;6.60;;
20695;SDS011;10507;52.754;13.040;2023-03-11T03:55:10;7.50;;;5.07;;
20695;SDS011;10507;52.754;13.040;2023-03-11T03:57:38;9.10;;;5.53;;
20695;SDS011;10507;52.754;13.040;2023-03-11T04:00:07;9.23;;;5.80;;
20695;SDS011;10507;52.754;13.040;2023-03-11T04:02:36;8.53;;;5.37;;
20695;SDS011;10507;52.754;13.040;2023-03-11T04:05:04;7.87;;;5.10;;
20695;SDS011;10507;52.754;13.040;2023-03-11T04:07:34;6.63;;;4.47;;
20695;SDS011;10507;52.754;13.040;2023-03-11T04:10:03;8.57;;;5.03;;
20695;SDS011;10507;52.754;13.040;2023-03-11T04:12:31;7.23;;;4.50;;
20695;SDS011;10507;52.754;13.040;2023-03-11T04:14:59;6.70;;;4.13;;
20695;SDS011;10507;52.754;13.040;2023-03-11T04:17:27;6.20;;;4.20;;
20695;SDS011;10507;52.754;13.040;2023-03-11T04:19:55;6.43;;;3.70;;
20695;SDS011;10507;52.754;13.040;2023-03-11T04:22:22;5.27;;;3.77;;
20695;SDS011;10507;52.754;13.040;2023-03-11T04:24:52;4.57;;;3.27;;
20695;SDS011;10507;52.754;13.040;2023-03-11T04:27:20;5.37;;;3.77;;
20695;SDS011;10507;52.754;13.040;2023-03-11T04:29:47;7.40;;;3.53;;
20695;SDS011;10507;52.754;13.040;2023-03-11T04:32:15;5.97;;;3.60;;
20695;SDS011;10507;52.754;13.040;2023-03-11T04:34:43;5.43;;;3.30;;
20695;SDS011;10507;52.754;13.040;2023-03-11T04:37:11;5.17;;;3.07;;
20695;SDS011;10507;52.754;13.040;2023-03-11T04:39:39;4.27;;;3.17;;
20695;SDS011;10507;52.754;13.040;2023-03-11T04:42:08;4.67;;;3.57;;
20695;SDS011;10507;52.754;13.040;2023-03-11T04:44:41;4.17;;;3.27;;
20695;SDS011;10507;52.754;13.040;2023-03-11T04:47:08;5.03;;;3.70;;
20695;SDS011;10507;52.754;13.040;2023-03-11T04:49:36;6.33;;;3.43;;
20695;SDS011;10507;52.754;13.040;2023-03-11T04:52:04;5.03;;;3.40;;
20695;SDS011;10507;52.754;13.040;2023-03-11T04:54:32;4.77;;;3.40;;
20695;SDS011;10507;52.754;13.040;2023-03-11T04:57:00;4.70;;;3.03;;
20695;SDS011;10507;52.754;13.040;2023-03-11T04:59:29;5.63;;;3.53;;
20695;SDS011;10507;52.754;13.040;2023-03-11T05:01:57;4.87;;;3.50;;
20695;SDS011;10507;52.754;13.040;2023-03-11T05:04:24;5.60;;;3.97;;
20695;SDS011;10507;52.754;13.040;2023-03-11T05:06:52;6.30;;;4.10;;
20695;SDS011;10507;52.754;13.040;2023-03-11T05:09:20;6.67;;;4.27;;
20695;SDS011;10507;52.754;13.040;2023-03-11T05:11:48;6.40;;;3.90;;
20695;SDS011;10507;52.754;13.040;2023-03-11T05:14:16;7.83;;;4.37;;
20695;SDS011;10507;52.754;13.040;2023-03-11T05:16:45;6.23;;;3.77;;
20695;SDS011;10507;52.754;13.040;2023-03-11T05:19:13;5.93;;;4.00;;
20695;SDS011;10507;52.754;13.040;2023-03-11T05:22:00;6.23;;;4.30;;
20695;SDS011;10507;52.754;13.040;2023-03-11T05:24:28;6.10;;;4.10;;
20695;SDS011;10507;52.754;13.040;2023-03-11T05:26:56;6.57;;;3.97;;
20695;SDS011;10507;52.754;13.040;2023-03-11T05:29:24;8.83;;;4.83;;
20695;SDS011;10507;52.754;13.040;2023-03-11T05:31:53;7.50;;;4.83;;
20695;SDS011;10507;52.754;13.040;2023-03-11T05:34:21;8.50;;;5.40;;
20695;SDS011;10507;52.754;13.040;2023-03-11T05:36:49;8.77;;;5.47;;
20695;SDS011;10507;52.754;13.040;2023-03-11T05:39:17;8.67;;;5.97;;
20695;SDS011;10507;52.754;13.040;2023-03-11T05:41:45;11.07;;;6.73;;
20695;SDS011;10507;52.754;13.040;2023-03-11T05:44:12;10.83;;;6.80;;
20695;SDS011;10507;52.754;13.040;2023-03-11T05:46:40;12.03;;;6.53;;
20695;SDS011;10507;52.754;13.040;2023-03-11T05:49:10;9.60;;;6.60;;
20695;SDS011;10507;52.754;13.040;2023-03-11T05:51:37;11.33;;;6.60;;
20695;SDS011;10507;52.754;13.040;2023-03-11T05:54:05;9.80;;;5.97;;
20695;SDS011;10507;52.754;13.040;2023-03-11T05:56:40;10.87;;;6.00;;
20695;SDS011;10507;52.754;13.040;2023-03-11T05:59:08;8.87;;;5.73;;
20695;SDS011;10507;52.754;13.040;2023-03-11T06:01:36;8.93;;;6.07;;
20695;SDS011;10507;52.754;13.040;2023-03-11T06:04:04;8.23;;;5.50;;
20695;SDS011;10507;52.754;13.040;2023-03-11T06:06:34;10.87;;;6.77;;
20695;SDS011;10507;52.754;13.040;2023-03-11T06:09:02;9.53;;;6.50;;
20695;SDS011;10507;52.754;13.040;2023-03-11T06:11:30;10.80;;;6.20;;
20695;SDS011;10507;52.754;13.040;2023-03-11T06:13:58;9.90;;;6.20;;
20695;SDS011;10507;52.754;13.040;2023-03-11T06:16:26;11.13;;;6.17;;
20695;SDS011;10507;52.754;13.040;2023-03-11T06:18:54;8.47;;;5.57;;
20695;SDS011;10507;52.754;13.040;2023-03-11T06:21:22;9.20;;;6.00;;
20695;SDS011;10507;52.754;13.040;2023-03-11T06:23:53;9.17;;;6.17;;
20695;SDS011;10507;52.754;13.040;2023-03-11T06:26:21;9.10;;;5.90;;
20695;SDS011;10507;52.754;13.040;2023-03-11T06:28:50;9.13;;;5.80;;
20695;SDS011;10507;52.754;13.040;2023-03-11T06:31:20;9.57;;;5.27;;
20695;SDS011;10507;52.754;13.040;2023-03-11T06:33:49;9.67;;;5.50;;
20695;SDS011;10507;52.754;13.040;2023-03-11T06:36:18;7.73;;;5.17;;
20695;SDS011;10507;52.754;13.040;2023-03-11T06:38:46;7.03;;;5.03;;
20695;SDS011;10507;52.754;13.040;2023-03-11T06:41:16;8.93;;;5.60;;
20695;SDS011;10507;52.754;13.040;2023-03-11T06:43:44;9.63;;;5.20;;
20695;SDS011;10507;52.754;13.040;2023-03-11T06:46:13;9.33;;;5.67;;
20695;SDS011;10507;52.754;13.040;2023-03-11T06:48:42;9.73;;;6.10;;
20695;SDS011;10507;52.754;13.040;2023-03-11T06:51:11;12.27;;;5.90;;
20695;SDS011;10507;52.754;13.040;2023-03-11T06:53:40;10.77;;;5.70;;
20695;SDS011;10507;52.754;13.040;2023-03-11T06:56:09;9.77;;;5.70;;
20695;SDS011;10507;52.754;13.040;2023-03-11T06:58:40;8.03;;;5.83;;
20695;SDS011;10507;52.754;13.040;2023-03-11T07:01:09;9.33;;;5.93;;
20695;SDS011;10507;52.754;13.040;2023-03-11T07:03:39;8.90;;;5.40;;
20695;SDS011;10507;52.754;13.040;2023-03-11T07:06:09;10.50;;;6.17;;
20695;SDS011;10507;52.754;13.040;2023-03-11T07:08:39;8.93;;;5.33;;
20695;SDS011;10507;52.754;13.040;2023-03-11T07:11:08;7.83;;;4.90;;
20695;SDS011;10507;52.754;13.040;2023-03-11T07:13:40;6.67;;;4.13;;
20695;SDS011;10507;52.754;13.040;2023-03-11T07:16:09;8.47;;;4.40;;
20695;SDS011;10507;52.754;13.040;2023-03-11T07:18:41;7.57;;;4.83;;
20695;SDS011;10507;52.754;13.040;2023-03-11T07:21:10;8.77;;;5.27;;
20695;SDS011;10507;52.754;13.040;2023-03-11T07:23:40;8.93;;;5.20;;
20695;SDS011;10507;52.754;13.040;2023-03-11T07:26:08;7.13;;;5.20;;
20695;SDS011;10507;52.754;13.040;2023-03-11T07:28:37;9.60;;;5.20;;
20695;SDS011;10507;52.754;13.040;2023-03-11T07:31:08;7.87;;;5.30;;
20695;SDS011;10507;52.754;13.040;2023-03-11T07:33:36;8.40;;;5.20;;
20695;SDS011;10507;52.754;13.040;2023-03-11T07:36:05;7.40;;;4.70;;
20695;SDS011;10507;52.754;13.040;2023-03-11T07:38:34;7.10;;;4.70;;
20695;SDS011;10507;52.754;13.040;2023-03-11T07:41:02;7.87;;;4.70;;
20695;SDS011;10507;52.754;13.040;2023-03-11T07:43:30;7.57;;;5.10;;
20695;SDS011;10507;52.754;13.040;2023-03-11T07:46:02;8.73;;;5.40;;
20695;SDS011;10507;52.754;13.040;2023-03-11T07:48:33;7.83;;;5.23;;
20695;SDS011;10507;52.754;13.040;2023-03-11T07:51:02;7.70;;;5.00;;
20695;SDS011;10507;52.754;13.040;2023-03-11T07:53:31;6.00;;;4.80;;
20695;SDS011;10507;52.754;13.040;2023-03-11T07:55:59;8.57;;;4.97;;
20695;SDS011;10507;52.754;13.040;2023-03-11T07:58:28;8.47;;;4.93;;
20695;SDS011;10507;52.754;13.040;2023-03-11T08:00:56;7.20;;;5.07;;
20695;SDS011;10507;52.754;13.040;2023-03-11T08:03:29;5.83;;;4.53;;
20695;SDS011;10507;52.754;13.040;2023-03-11T08:05:58;6.93;;;5.03;;
20695;SDS011;10507;52.754;13.040;2023-03-11T08:08:26;9.83;;;4.50;;
20695;SDS011;10507;52.754;13.040;2023-03-11T08:10:55;6.50;;;4.10;;
20695;SDS011;10507;52.754;13.040;2023-03-11T08:13:22;9.07;;;4.37;;
20695;SDS011;10507;52.754;13.040;2023-03-11T08:15:50;6.13;;;4.30;;
20695;SDS011;10507;52.754;13.040;2023-03-11T08:18:18;7.63;;;4.40;;
20695;SDS011;10507;52.754;13.040;2023-03-11T08:20:45;6.07;;;4.23;;
20695;SDS011;10507;52.754;13.040;2023-03-11T08:23:14;5.83;;;4.60;;
20695;SDS011;10507;52.754;13.040;2023-03-11T08:25:42;6.60;;;4.50;;
20695;SDS011;10507;52.754;13.040;2023-03-11T08:28:10;6.33;;;4.67;;
20695;SDS011;10507;52.754;13.040;2023-03-11T08:30:38;5.47;;;4.00;;
20695;SDS011;10507;52.754;13.040;2023-03-11T08:33:07;6.10;;;4.40;;
20695;SDS011;10507;52.754;13.040;2023-03-11T08:35:35;7.70;;;4.17;;
20695;SDS011;10507;52.754;13.040;2023-03-11T08:38:03;6.93;;;4.17;;
20695;SDS011;10507;52.754;13.040;2023-03-11T08:40:32;8.23;;;4.37;;
20695;SDS011;10507;52.754;13.040;2023-03-11T08:43:00;7.83;;;4.63;;
20695;SDS011;10507;52.754;13.040;2023-03-11T08:45:28;6.87;;;4.17;;
20695;SDS011;10507;52.754;13.040;2023-03-11T08:47:56;6.17;;;4.30;;
20695;SDS011;10507;52.754;13.040;2023-03-11T08:50:24;9.83;;;6.17;;
20695;SDS011;10507;52.754;13.040;2023-03-11T08:52:52;16.20;;;8.73;;
20695;SDS011;10507;52.754;13.040;2023-03-11T08:55:21;19.57;;;10.83;;
20695;SDS011;10507;52.754;13.040;2023-03-11T08:57:54;12.07;;;7.53;;
20695;SDS011;10507;52.754;13.040;2023-03-11T09:00:22;13.43;;;8.87;;
20695;SDS011;10507;52.754;13.040;2023-03-11T09:02:50;14.33;;;9.23;;
20695;SDS011;10507;52.754;13.040;2023-03-11T09:08:18;18.03;;;10.30;;
20695;SDS011;10507;52.754;13.040;2023-03-11T09:10:46;16.23;;;10.60;;
20695;SDS011;10507;52.754;13.040;2023-03-11T09:13:15;11.40;;;7.93;;
20695;SDS011;10507;52.754;13.040;2023-03-11T09:15:43;10.53;;;6.53;;
20695;SDS011;10507;52.754;13.040;2023-03-11T09:18:12;10.40;;;7.10;;
20695;SDS011;10507;52.754;13.040;2023-03-11T09:20:41;9.70;;;5.90;;
20695;SDS011;10507;52.754;13.040;2023-03-11T09:23:10;8.90;;;5.70;;
20695;SDS011;10507;52.754;13.040;2023-03-11T09:25:41;8.27;;;6.07;;
20695;SDS011;10507;52.754;13.040;2023-03-11T09:28:08;9.37;;;5.90;;
20695;SDS011;10507;52.754;13.040;2023-03-11T09:30:38;7.87;;;5.87;;
20695;SDS011;10507;52.754;13.040;2023-03-11T09:33:05;7.97;;;5.70;;
20695;SDS011;10507;52.754;13.040;2023-03-11T09:35:36;8.63;;;5.50;;
20695;SDS011;10507;52.754;13.040;2023-03-11T09:38:04;7.63;;;5.57;;
20695;SDS011;10507;52.754;13.040;2023-03-11T09:40:38;7.60;;;5.17;;
20695;SDS011;10507;52.754;13.040;2023-03-11T09:43:21;6.83;;;5.30;;
20695;SDS011;10507;52.754;13.040;2023-03-11T09:46:11;8.13;;;5.70;;
20695;SDS011;10507;52.754;13.040;2023-03-11T09:48:54;8.67;;;5.23;;
20695;SDS011;10507;52.754;13.040;2023-03-11T09:51:31;8.60;;;5.60;;
20695;SDS011;10507;52.754;13.040;2023-03-11T09:54:05;7.17;;;5.47;;
20695;SDS011;10507;52.754;13.040;2023-03-11T09:56:37;7.13;;;5.70;;
20695;SDS011;10507;52.754;13.040;2023-03-11T09:59:12;7.20;;;5.57;;
20695;SDS011;10507;52.754;13.040;2023-03-11T10:01:46;7.67;;;6.07;;
20695;SDS011;10507;52.754;13.040;2023-03-11T10:04:17;8.53;;;6.03;;
20695;SDS011;10507;52.754;13.040;2023-03-11T10:06:49;9.17;;;6.23;;
20695;SDS011;10507;52.754;13.040;2023-03-11T10:09:24;8.90;;;6.03;;
20695;SDS011;10507;52.754;13.040;2023-03-11T10:14:54;9.93;;;6.30;;
20695;SDS011;10507;52.754;13.040;2023-03-11T10:20:25;8.63;;;6.30;;
20695;SDS011;10507;52.754;13.040;2023-03-11T10:23:01;9.17;;;6.20;;
20695;SDS011;10507;52.754;13.040;2023-03-11T10:25:40;9.07;;;6.80;;
20695;SDS011;10507;52.754;13.040;2023-03-11T10:28:16;8.57;;;6.33;;
20695;SDS011;10507;52.754;13.040;2023-03-11T10:30:47;8.10;;;6.63;;
20695;SDS011;10507;52.754;13.040;2023-03-11T10:33:22;8.67;;;6.20;;
20695;SDS011;10507;52.754;13.040;2023-03-11T10:35:57;8.00;;;6.00;;
20695;SDS011;10507;52.754;13.040;2023-03-11T10:38:30;10.67;;;6.97;;
20695;SDS011;10507;52.754;13.040;2023-03-11T10:41:02;9.17;;;6.50;;
20695;SDS011;10507;52.754;13.040;2023-03-11T10:43:34;8.07;;;6.57;;
20695;SDS011;10507;52.754;13.040;2023-03-11T10:46:11;10.07;;;7.27;;
20695;SDS011;10507;52.754;13.040;2023-03-11T10:48:47;10.43;;;7.03;;
20695;SDS011;10507;52.754;13.040;2023-03-11T10:51:15;11.20;;;7.03;;
20695;SDS011;10507;52.754;13.040;2023-03-11T10:53:49;7.83;;;6.27;;
20695;SDS011;10507;52.754;13.040;2023-03-11T10:56:26;12.30;;;7.03;;
20695;SDS011;10507;52.754;13.040;2023-03-11T10:58:57;10.37;;;7.37;;
20695;SDS011;10507;52.754;13.040;2023-03-11T11:01:26;9.87;;;7.13;;
20695;SDS011;10507;52.754;13.040;2023-03-11T11:03:57;11.60;;;8.33;;
20695;SDS011;10507;52.754;13.040;2023-03-11T11:06:28;9.87;;;7.13;;
20695;SDS011;10507;52.754;13.040;2023-03-11T11:09:09;12.43;;;7.33;;
20695;SDS011;10507;52.754;13.040;2023-03-11T11:11:41;10.70;;;7.47;;
20695;SDS011;10507;52.754;13.040;2023-03-11T11:14:40;11.57;;;7.70;;
20695;SDS011;10507;52.754;13.040;2023-03-11T11:17:16;9.83;;;7.33;;
20695;SDS011;10507;52.754;13.040;2023-03-11T11:19:49;13.10;;;8.10;;
20695;SDS011;10507;52.754;13.040;2023-03-11T11:22:19;9.87;;;7.13;;
20695;SDS011;10507;52.754;13.040;2023-03-11T11:24:49;10.93;;;7.83;;
20695;SDS011;10507;52.754;13.040;2023-03-11T11:27:19;11.50;;;7.40;;
20695;SDS011;10507;52.754;13.040;2023-03-11T11:30:01;13.40;;;7.67;;
20695;SDS011;10507;52.754;13.040;2023-03-11T11:32:39;11.27;;;7.97;;
20695;SDS011;10507;52.754;13.040;2023-03-11T11:35:11;10.47;;;7.63;;
20695;SDS011;10507;52.754;13.040;2023-03-11T11:37:40;10.70;;;7.80;;
20695;SDS011;10507;52.754;13.040;2023-03-11T11:40:26;11.13;;;7.13;;
20695;SDS011;10507;52.754;13.040;2023-03-11T11:42:56;9.63;;;7.33;;
20695;SDS011;10507;52.754;13.040;2023-03-11T11:48:20;10.33;;;7.30;;
20695;SDS011;10507;52.754;13.040;2023-03-11T11:50:58;10.03;;;8.17;;
20695;SDS011;10507;52.754;13.040;2023-03-11T11:53:30;11.20;;;8.10;;
20695;SDS011;10507;52.754;13.040;2023-03-11T11:56:07;11.53;;;7.40;;
20695;SDS011;10507;52.754;13.040;2023-03-11T11:58:35;9.67;;;7.07;;
20695;SDS011;10507;52.754;13.040;2023-03-11T12:01:12;10.33;;;7.27;;
20695;SDS011;10507;52.754;13.040;2023-03-11T12:06:52;9.63;;;6.73;;
20695;SDS011;10507;52.754;13.040;2023-03-11T12:09:30;10.37;;;7.63;;
20695;SDS011;10507;52.754;13.040;2023-03-11T12:12:07;10.00;;;7.63;;
20695;SDS011;10507;52.754;13.040;2023-03-11T12:14:46;11.20;;;7.80;;
20695;SDS011;10507;52.754;13.040;2023-03-11T12:17:25;9.60;;;7.27;;
20695;SDS011;10507;52.754;13.040;2023-03-11T12:19:56;10.03;;;7.23;;
20695;SDS011;10507;52.754;13.040;2023-03-11T12:22:44;12.53;;;7.70;;
20695;SDS011;10507;52.754;13.040;2023-03-11T12:25:37;13.37;;;7.53;;
20695;SDS011;10507;52.754;13.040;2023-03-11T12:28:13;12.43;;;8.17;;
20695;SDS011;10507;52.754;13.040;2023-03-11T12:30:48;10.27;;;7.33;;
20695;SDS011;10507;52.754;13.040;2023-03-11T12:33:21;13.00;;;7.47;;
20695;SDS011;10507;52.754;13.040;2023-03-11T12:35:58;12.00;;;7.67;;
20695;SDS011;10507;52.754;13.040;2023-03-11T12:38:36;12.03;;;7.43;;
20695;SDS011;10507;52.754;13.040;2023-03-11T12:41:07;13.07;;;7.17;;
20695;SDS011;10507;52.754;13.040;2023-03-11T12:43:57;8.13;;;6.77;;
20695;SDS011;10507;52.754;13.040;2023-03-11T12:49:35;10.23;;;7.23;;
20695;SDS011;10507;52.754;13.040;2023-03-11T12:58:17;9.67;;;6.27;;
20695;SDS011;10507;52.754;13.040;2023-03-11T13:04:13;8.83;;;5.90;;
20695;SDS011;10507;52.754;13.040;2023-03-11T13:06:57;7.83;;;5.47;;
20695;SDS011;10507;52.754;13.040;2023-03-11T13:09:58;10.13;;;5.90;;
20695;SDS011;10507;52.754;13.040;2023-03-11T13:12:36;7.20;;;4.47;;
20695;SDS011;10507;52.754;13.040;2023-03-11T13:17:59;7.07;;;4.90;;
20695;SDS011;10507;52.754;13.040;2023-03-11T13:23:30;6.17;;;3.90;;
20695;SDS011;10507;52.754;13.040;2023-03-11T13:29:17;5.83;;;4.00;;
20695;SDS011;10507;52.754;13.040;2023-03-11T13:35:19;4.67;;;3.90;;
20695;SDS011;10507;52.754;13.040;2023-03-11T13:38:08;6.30;;;4.50;;
20695;SDS011;10507;52.754;13.040;2023-03-11T13:40:43;6.63;;;4.60;;
20695;SDS011;10507;52.754;13.040;2023-03-11T13:43:14;6.53;;;4.07;;
20695;SDS011;10507;52.754;13.040;2023-03-11T13:45:45;7.40;;;4.57;;
20695;SDS011;10507;52.754;13.040;2023-03-11T13:48:19;6.57;;;4.13;;
20695;SDS011;10507;52.754;13.040;2023-03-11T13:50:56;6.50;;;4.57;;
20695;SDS011;10507;52.754;13.040;2023-03-11T13:53:27;6.90;;;4.57;;
20695;SDS011;10507;52.754;13.040;2023-03-11T13:55:58;8.93;;;5.17;;
20695;SDS011;10507;52.754;13.040;2023-03-11T13:58:27;7.37;;;4.50;;
20695;SDS011;10507;52.754;13.040;2023-03-11T14:00:55;6.10;;;4.00;;
20695;SDS011;10507;52.754;13.040;2023-03-11T14:03:25;6.50;;;4.43;;
20695;SDS011;10507;52.754;13.040;2023-03-11T14:06:02;7.73;;;4.03;;
20695;SDS011;10507;52.754;13.040;2023-03-11T14:08:33;6.00;;;4.17;;
20695;SDS011;10507;52.754;13.040;2023-03-11T14:11:03;6.23;;;3.63;;
20695;SDS011;10507;52.754;13.040;2023-03-11T14:13:43;6.73;;;4.27;;
20695;SDS011;10507;52.754;13.040;2023-03-11T14:16:12;5.73;;;3.80;;
20695;SDS011;10507;52.754;13.040;2023-03-11T14:18:43;7.50;;;4.27;;
20695;SDS011;10507;52.754;13.040;2023-03-11T14:21:18;7.83;;;4.67;;
20695;SDS011;10507;52.754;13.040;2023-03-11T14:23:50;6.20;;;3.97;;
20695;SDS011;10507;52.754;13.040;2023-03-11T14:26:20;10.30;;;5.37;;
20695;SDS011;10507;52.754;13.040;2023-03-11T14:28:52;9.17;;;4.97;;
20695;SDS011;10507;52.754;13.040;2023-03-11T14:31:23;6.27;;;4.07;;
20695;SDS011;10507;52.754;13.040;2023-03-11T14:33:57;7.13;;;4.23;;
20695;SDS011;10507;52.754;13.040;2023-03-11T14:36:37;6.80;;;4.37;;
20695;SDS011;10507;52.754;13.040;2023-03-11T14:39:20;5.97;;;3.83;;
20695;SDS011;10507;52.754;13.040;2023-03-11T14:41:53;6.77;;;3.53;;
20695;SDS011;10507;52.754;13.040;2023-03-11T14:44:25;4.97;;;3.27;;
20695;SDS011;10507;52.754;13.040;2023-03-11T14:47:02;4.97;;;3.07;;
20695;SDS011;10507;52.754;13.040;2023-03-11T14:49:38;5.43;;;3.50;;
20695;SDS011;10507;52.754;13.040;2023-03-11T14:52:13;4.93;;;3.73;;
20695;SDS011;10507;52.754;13.040;2023-03-11T14:54:46;5.47;;;3.50;;
20695;SDS011;10507;52.754;13.040;2023-03-11T14:57:18;6.20;;;3.60;;
20695;SDS011;10507;52.754;13.040;2023-03-11T14:59:50;6.07;;;3.40;;
20695;SDS011;10507;52.754;13.040;2023-03-11T15:02:28;5.73;;;3.23;;
20695;SDS011;10507;52.754;13.040;2023-03-11T15:05:06;5.40;;;3.53;;
20695;SDS011;10507;52.754;13.040;2023-03-11T15:07:46;5.33;;;3.63;;
20695;SDS011;10507;52.754;13.040;2023-03-11T15:10:17;4.57;;;2.97;;
20695;SDS011;10507;52.754;13.040;2023-03-11T15:12:45;5.40;;;3.73;;
20695;SDS011;10507;52.754;13.040;2023-03-11T15:15:21;6.27;;;3.73;;
20695;SDS011;10507;52.754;13.040;2023-03-11T15:17:53;7.17;;;4.27;;
20695;SDS011;10507;52.754;13.040;2023-03-11T15:20:26;5.13;;;3.33;;
20695;SDS011;10507;52.754;13.040;2023-03-11T15:22:58;5.83;;;3.63;;
20695;SDS011;10507;52.754;13.040;2023-03-11T15:25:28;5.87;;;2.93;;
20695;SDS011;10507;52.754;13.040;2023-03-11T15:27:59;5.93;;;3.40;;
20695;SDS011;10507;52.754;13.040;2023-03-11T15:30:42;5.20;;;3.40;;
20695;SDS011;10507;52.754;13.040;2023-03-11T15:33:19;5.13;;;3.50;;